createdAt,value
2022-09-28T00:01:34.895Z,4.17
2022-09-28T00:03:58.215Z,4.70
2022-09-28T00:06:22.474Z,4.43
2022-09-28T00:08:44.142Z,3.60
2022-09-28T00:11:08.058Z,3.13
2022-09-28T00:13:31.660Z,3.10
2022-09-28T00:16:11.114Z,4.07
2022-09-28T00:18:33.534Z,4.50
2022-09-28T00:21:15.498Z,2.60
2022-09-28T00:23:59.977Z,2.50
2022-09-28T00:26:21.597Z,3.83
2022-09-28T00:28:42.992Z,4.03
2022-09-28T00:31:04.588Z,3.20
2022-09-28T00:33:26.048Z,1.97
2022-09-28T00:35:47.495Z,2.43
2022-09-28T00:38:09.470Z,2.53
2022-09-28T00:40:31.025Z,2.40
2022-09-28T00:42:52.522Z,2.90
2022-09-28T00:45:13.991Z,2.90
2022-09-28T00:47:49.823Z,2.70
2022-09-28T00:50:18.148Z,2.50
2022-09-28T00:53:02.458Z,2.80
2022-09-28T00:55:58.886Z,2.83
2022-09-28T00:58:30.267Z,2.40
2022-09-28T01:00:54.914Z,3.07
2022-09-28T01:03:16.958Z,2.60
2022-09-28T01:05:40.007Z,2.73
2022-09-28T01:08:02.801Z,3.10
2022-09-28T01:10:24.391Z,3.93
2022-09-28T01:12:45.840Z,3.70
2022-09-28T01:15:07.664Z,4.07
2022-09-28T01:17:53.414Z,3.63
2022-09-28T01:20:27.619Z,3.80
2022-09-28T01:23:14.186Z,4.40
2022-09-28T01:26:00.567Z,3.90
2022-09-28T01:28:27.664Z,3.77
2022-09-28T01:31:12.630Z,3.00
2022-09-28T01:33:58.715Z,3.03
2022-09-28T01:36:46.453Z,3.13
2022-09-28T01:39:12.790Z,3.80
2022-09-28T01:41:40.315Z,4.33
2022-09-28T01:44:04.711Z,4.13
2022-09-28T01:46:37.936Z,4.33
2022-09-28T01:49:06.752Z,3.90
2022-09-28T01:52:00.287Z,4.30
2022-09-28T01:54:36.374Z,4.40
2022-09-28T01:57:26.063Z,4.37
2022-09-28T02:00:01.253Z,4.13
2022-09-28T02:02:29.645Z,4.20
2022-09-28T02:04:58.660Z,3.70
2022-09-28T02:07:37.451Z,4.27
2022-09-28T02:10:06.999Z,3.70
2022-09-28T02:12:37.287Z,4.17
2022-09-28T02:15:08.327Z,3.90
2022-09-28T02:17:29.799Z,4.13
2022-09-28T02:19:51.493Z,3.87
2022-09-28T02:22:33.829Z,3.60
2022-09-28T02:24:59.674Z,3.67
2022-09-28T02:27:41.248Z,3.67
2022-09-28T02:30:05.306Z,3.97
2022-09-28T02:32:28.882Z,5.17
2022-09-28T02:34:50.403Z,3.87
2022-09-28T02:37:12.543Z,3.70
2022-09-28T02:39:34.020Z,3.93
2022-09-28T02:42:05.763Z,3.47
2022-09-28T02:45:07.275Z,3.47
2022-09-28T02:47:50.547Z,3.00
2022-09-28T02:50:25.515Z,2.67
2022-09-28T02:53:24.385Z,2.50
2022-09-28T02:56:05.363Z,2.50
2022-09-28T02:58:47.933Z,2.30
2022-09-28T03:01:21.371Z,2.00
2022-09-28T03:03:55.527Z,2.47
2022-09-28T03:06:33.616Z,2.50
2022-09-28T03:09:05.741Z,3.00
2022-09-28T03:11:36.232Z,3.23
2022-09-28T03:13:58.416Z,3.37
2022-09-28T03:16:20.659Z,2.70
2022-09-28T03:18:42.941Z,2.70
2022-09-28T03:21:05.518Z,2.37
2022-09-28T03:23:26.937Z,2.47
2022-09-28T03:25:48.374Z,2.70
2022-09-28T03:28:09.799Z,2.30
2022-09-28T03:30:31.496Z,2.30
2022-09-28T03:33:00.320Z,2.50
2022-09-28T03:35:21.786Z,1.70
2022-09-28T03:37:43.186Z,1.40
2022-09-28T03:40:05.441Z,1.67
2022-09-28T03:42:26.879Z,1.47
2022-09-28T03:44:48.346Z,1.40
2022-09-28T03:47:10.487Z,1.50
2022-09-28T03:49:31.942Z,1.40
2022-09-28T03:51:53.437Z,1.30
2022-09-28T03:54:14.948Z,1.00
2022-09-28T03:56:36.403Z,1.00
2022-09-28T03:58:57.840Z,0.80
2022-09-28T04:01:19.324Z,0.67
2022-09-28T04:03:40.826Z,0.80
2022-09-28T04:06:02.323Z,0.70
2022-09-28T04:08:23.828Z,0.60
2022-09-28T04:10:46.003Z,0.63
2022-09-28T04:13:07.441Z,0.70
2022-09-28T04:15:28.874Z,0.60
2022-09-28T04:17:50.765Z,0.50
2022-09-28T04:20:12.236Z,0.60
2022-09-28T04:22:33.675Z,0.80
2022-09-28T04:24:55.099Z,0.50
2022-09-28T04:27:34.996Z,0.60
2022-09-28T04:29:56.444Z,0.37
2022-09-28T04:32:17.907Z,0.63
2022-09-28T04:34:43.740Z,0.40
2022-09-28T04:37:05.671Z,0.50
2022-09-28T04:39:27.098Z,0.20
2022-09-28T04:41:49.009Z,0.40
2022-09-28T04:44:10.464Z,0.37
2022-09-28T04:46:32.401Z,0.50
2022-09-28T04:48:53.888Z,0.70
2022-09-28T04:51:15.400Z,0.40
2022-09-28T04:53:36.826Z,0.30
2022-09-28T04:56:06.606Z,0.37
2022-09-28T04:58:29.184Z,0.43
2022-09-28T05:00:51.355Z,0.43
2022-09-28T05:03:12.837Z,0.50
2022-09-28T05:05:34.252Z,0.43
2022-09-28T05:07:59.096Z,0.27
2022-09-28T05:10:20.551Z,0.40
2022-09-28T05:12:41.984Z,0.47
2022-09-28T05:15:03.956Z,0.50
2022-09-28T05:17:25.385Z,0.43
2022-09-28T05:19:46.827Z,0.37
2022-09-28T05:22:13.891Z,0.57
2022-09-28T05:24:35.336Z,0.30
2022-09-28T05:26:56.944Z,0.40
2022-09-28T05:29:18.561Z,0.60
2022-09-28T05:31:40.270Z,0.50
2022-09-28T05:34:01.785Z,0.50
2022-09-28T05:36:23.934Z,0.50
2022-09-28T05:38:45.912Z,0.40
2022-09-28T05:41:07.433Z,0.40
2022-09-28T05:43:29.177Z,0.40
2022-09-28T05:45:55.426Z,0.50
2022-09-28T05:48:17.221Z,0.40
2022-09-28T05:50:38.652Z,0.50
2022-09-28T05:53:10.142Z,0.60
2022-09-28T05:55:32.401Z,0.50
2022-09-28T05:57:53.910Z,0.53
2022-09-28T06:00:15.376Z,0.70
2022-09-28T06:02:36.956Z,0.80
2022-09-28T06:04:58.401Z,0.90
2022-09-28T06:07:21.912Z,0.90
2022-09-28T06:09:43.862Z,0.83
2022-09-28T06:12:05.272Z,1.10
2022-09-28T06:14:26.802Z,1.20
2022-09-28T06:16:48.294Z,0.90
2022-09-28T06:19:10.565Z,1.00
2022-09-28T06:21:31.993Z,1.20
2022-09-28T06:23:53.499Z,1.27
2022-09-28T06:26:15.162Z,0.97
2022-09-28T06:28:37.416Z,0.93
2022-09-28T06:31:01.835Z,1.20
2022-09-28T06:33:25.638Z,1.03
2022-09-28T06:35:47.172Z,1.20
2022-09-28T06:38:08.823Z,1.00
2022-09-28T06:40:31.129Z,1.33
2022-09-28T06:43:21.002Z,0.87
2022-09-28T06:45:43.672Z,0.73
2022-09-28T06:48:05.660Z,0.90
2022-09-28T06:50:35.927Z,0.80
2022-09-28T06:52:57.377Z,0.80
2022-09-28T06:55:19.140Z,1.00
2022-09-28T06:57:40.590Z,1.07
2022-09-28T07:00:02.032Z,1.60
2022-09-28T07:02:23.527Z,2.10
2022-09-28T07:04:45.016Z,2.40
2022-09-28T07:07:08.994Z,2.60
2022-09-28T07:09:33.448Z,2.40
2022-09-28T07:11:55.906Z,2.87
2022-09-28T07:14:32.110Z,2.87
2022-09-28T07:17:12.502Z,2.53
2022-09-28T07:19:36.506Z,3.13
2022-09-28T07:22:04.716Z,2.60
2022-09-28T07:24:26.382Z,2.90
2022-09-28T07:26:47.846Z,2.70
2022-09-28T07:29:09.339Z,2.80
2022-09-28T07:31:32.290Z,2.40
2022-09-28T07:33:53.968Z,1.53
2022-09-28T07:36:18.515Z,1.57
2022-09-28T07:38:41.304Z,1.30
2022-09-28T07:41:11.805Z,1.30
2022-09-28T07:43:33.329Z,1.30
2022-09-28T07:45:54.985Z,1.33
2022-09-28T07:48:17.180Z,1.50
2022-09-28T07:50:38.601Z,1.23
2022-09-28T07:53:00.677Z,1.30
2022-09-28T07:55:22.099Z,1.40
2022-09-28T07:57:44.461Z,1.30
2022-09-28T08:00:09.153Z,1.27
2022-09-28T08:02:33.602Z,1.27
2022-09-28T08:04:55.024Z,1.67
2022-09-28T08:07:24.275Z,1.77
2022-09-28T08:09:46.235Z,1.83
2022-09-28T08:12:08.269Z,1.90
2022-09-28T08:14:34.316Z,2.40
2022-09-28T08:16:55.764Z,2.40
2022-09-28T08:19:17.329Z,2.40
2022-09-28T08:21:47.619Z,2.50
2022-09-28T08:24:09.050Z,2.30
2022-09-28T08:26:30.487Z,2.23
2022-09-28T08:28:51.898Z,2.63
2022-09-28T08:31:13.398Z,2.87
2022-09-28T08:33:35.418Z,2.80
2022-09-28T08:35:58.858Z,2.60
2022-09-28T08:38:20.306Z,3.07
2022-09-28T08:40:54.854Z,2.33
2022-09-28T08:43:48.427Z,2.20
2022-09-28T08:46:12.469Z,2.20
2022-09-28T08:48:52.247Z,1.87
2022-09-28T08:51:22.929Z,2.03
2022-09-28T08:54:14.365Z,2.37
2022-09-28T08:56:42.984Z,2.53
2022-09-28T08:59:09.568Z,2.33
2022-09-28T09:01:41.162Z,2.60
2022-09-28T09:04:05.264Z,2.57
2022-09-28T09:06:54.318Z,2.40
2022-09-28T09:09:47.896Z,2.30
2022-09-28T09:15:38.830Z,2.60
2022-09-28T09:18:19.842Z,2.30
2022-09-28T09:20:53.543Z,2.60
2022-09-28T09:23:39.171Z,2.80
2022-09-28T09:26:23.183Z,2.20
2022-09-28T09:28:57.974Z,2.40
2022-09-28T09:31:50.316Z,2.13
2022-09-28T09:34:30.755Z,2.30
2022-09-28T09:37:09.187Z,1.73
2022-09-28T09:39:58.806Z,2.07
2022-09-28T09:42:33.867Z,2.00
2022-09-28T09:45:10.603Z,2.07
2022-09-28T09:47:45.852Z,2.00
2022-09-28T09:50:39.921Z,1.70
2022-09-28T09:53:45.953Z,2.50
2022-09-28T09:56:18.202Z,2.23
2022-09-28T09:58:47.956Z,1.87
2022-09-28T10:01:13.900Z,1.83
2022-09-28T10:03:39.597Z,1.80
2022-09-28T10:06:09.229Z,2.00
2022-09-28T10:08:37.890Z,1.77
2022-09-28T10:11:11.190Z,1.90
2022-09-28T10:13:32.892Z,2.23
2022-09-28T10:15:55.475Z,2.10
2022-09-28T10:18:19.947Z,2.20
2022-09-28T10:20:44.985Z,1.80
2022-09-28T10:23:17.416Z,2.00
2022-09-28T10:25:38.919Z,1.63
2022-09-28T10:28:02.954Z,1.80
2022-09-28T10:30:25.657Z,1.67
2022-09-28T10:32:49.220Z,1.37
2022-09-28T10:35:40.049Z,1.67
2022-09-28T10:38:07.578Z,1.70
2022-09-28T10:40:40.508Z,1.87
2022-09-28T10:43:07.781Z,1.80
2022-09-28T10:45:35.327Z,1.43
2022-09-28T10:48:00.865Z,1.60
2022-09-28T10:50:27.417Z,1.40
2022-09-28T10:52:49.005Z,1.60
2022-09-28T10:55:25.718Z,1.63
2022-09-28T10:57:48.175Z,1.73
2022-09-28T11:00:30.605Z,2.17
2022-09-28T11:02:53.020Z,2.10
2022-09-28T11:05:22.748Z,1.93
2022-09-28T11:07:46.976Z,2.33
2022-09-28T11:10:20.493Z,1.93
2022-09-28T11:12:45.551Z,2.07
2022-09-28T11:15:12.059Z,2.37
2022-09-28T11:17:40.447Z,2.13
2022-09-28T11:20:29.240Z,1.87
2022-09-28T11:22:59.464Z,2.27
2022-09-28T11:25:24.487Z,2.03
2022-09-28T11:27:52.150Z,2.17
2022-09-28T11:30:38.391Z,1.97
2022-09-28T11:33:10.676Z,2.10
2022-09-28T11:35:51.609Z,2.27
2022-09-28T11:38:34.931Z,2.10
2022-09-28T11:41:10.239Z,1.30
2022-09-28T11:44:00.585Z,1.20
2022-09-28T11:46:33.408Z,1.00
2022-09-28T11:48:59.898Z,1.10
2022-09-28T11:51:26.741Z,1.10
2022-09-28T11:53:53.534Z,1.20
2022-09-28T11:56:17.783Z,0.83
2022-09-28T11:58:53.429Z,0.93
2022-09-28T12:01:36.336Z,0.90
2022-09-28T12:04:03.890Z,1.10
2022-09-28T12:06:35.738Z,0.80
2022-09-28T12:09:06.848Z,0.80
2022-09-28T12:11:36.152Z,0.80
2022-09-28T12:14:00.734Z,1.03
2022-09-28T12:17:00.553Z,1.03
2022-09-28T12:19:21.866Z,0.80
2022-09-28T12:22:00.204Z,1.00
2022-09-28T12:24:33.147Z,0.97
2022-09-28T12:26:58.386Z,1.20
2022-09-28T12:30:04.268Z,2.50
2022-09-28T12:32:37.520Z,1.20
2022-09-28T12:34:58.981Z,1.27
2022-09-28T12:37:29.298Z,1.30
2022-09-28T12:40:21.529Z,1.40
2022-09-28T12:43:01.443Z,1.37
2022-09-28T12:45:53.072Z,1.40
2022-09-28T12:48:19.052Z,1.30
2022-09-28T12:51:11.060Z,1.23
2022-09-28T12:53:53.329Z,1.07
2022-09-28T12:57:02.910Z,1.20
2022-09-28T12:59:46.784Z,1.00
2022-09-28T13:02:20.222Z,1.00
2022-09-28T13:05:10.204Z,0.87
2022-09-28T13:07:34.568Z,1.00
2022-09-28T13:10:33.760Z,1.13
2022-09-28T13:13:31.463Z,1.00
2022-09-28T13:16:09.645Z,1.03
2022-09-28T13:18:39.250Z,1.00
2022-09-28T13:21:05.349Z,0.80
2022-09-28T13:23:35.520Z,1.07
2022-09-28T13:26:11.013Z,1.17
2022-09-28T13:28:34.303Z,1.37
2022-09-28T13:33:33.744Z,1.10
2022-09-28T13:35:55.204Z,1.87
2022-09-28T13:38:16.543Z,1.40
2022-09-28T13:41:06.067Z,1.50
2022-09-28T13:43:35.248Z,1.37
2022-09-28T13:46:03.280Z,1.30
2022-09-28T13:48:44.893Z,1.10
2022-09-28T13:51:15.319Z,1.20
2022-09-28T13:53:45.663Z,1.37
2022-09-28T13:56:34.771Z,1.03
2022-09-28T13:59:12.194Z,1.10
2022-09-28T14:01:40.923Z,0.90
2022-09-28T14:04:19.112Z,0.80
2022-09-28T14:06:55.548Z,0.97
2022-09-28T14:09:41.016Z,1.00
2022-09-28T14:12:04.318Z,1.30
2022-09-28T14:14:43.670Z,1.17
2022-09-28T14:17:27.309Z,0.90
2022-09-28T14:20:15.144Z,1.20
2022-09-28T14:23:05.423Z,0.90
2022-09-28T14:25:31.322Z,1.10
2022-09-28T14:28:40.092Z,1.20
2022-09-28T14:31:08.587Z,1.10
2022-09-28T14:33:32.926Z,1.10
2022-09-28T14:35:57.678Z,1.10
2022-09-28T14:38:40.935Z,1.07
2022-09-28T14:41:15.118Z,1.07
2022-09-28T14:43:45.738Z,0.87
2022-09-28T14:46:19.984Z,1.00
2022-09-28T14:48:47.948Z,1.00
2022-09-28T14:51:27.518Z,1.00
2022-09-28T14:53:50.623Z,0.90
2022-09-28T14:56:14.121Z,4.33
2022-09-28T14:58:36.642Z,1.40
2022-09-28T15:01:05.364Z,1.17
2022-09-28T15:03:30.383Z,1.10
2022-09-28T15:05:52.359Z,2.03
2022-09-28T15:08:14.739Z,1.40
2022-09-28T15:10:45.472Z,0.90
2022-09-28T15:13:21.917Z,1.10
2022-09-28T15:15:51.368Z,1.20
2022-09-28T15:18:20.403Z,1.10
2022-09-28T15:20:46.873Z,1.20
2022-09-28T15:23:24.563Z,1.00
2022-09-28T15:25:52.625Z,0.97
2022-09-28T15:28:22.168Z,1.03
2022-09-28T15:30:43.823Z,1.20
2022-09-28T15:33:24.020Z,1.00
2022-09-28T15:35:59.318Z,1.00
2022-09-28T15:38:20.959Z,1.13
2022-09-28T15:40:43.276Z,0.90
2022-09-28T15:43:26.843Z,1.10
2022-09-28T15:46:02.727Z,1.07
2022-09-28T15:48:31.702Z,1.10
2022-09-28T15:51:12.220Z,1.10
2022-09-28T15:53:34.051Z,1.20
2022-09-28T15:56:01.242Z,1.20
2022-09-28T15:58:24.364Z,1.10
2022-09-28T16:00:47.719Z,0.97
2022-09-28T16:03:09.346Z,0.87
2022-09-28T16:05:53.107Z,1.17
2022-09-28T16:08:38.972Z,1.27
2022-09-28T16:11:25.879Z,1.30
2022-09-28T16:14:27.111Z,1.30
2022-09-28T16:16:51.087Z,1.30
2022-09-28T16:19:39.336Z,1.30
2022-09-28T16:22:06.390Z,1.50
2022-09-28T16:24:49.800Z,1.50
2022-09-28T16:27:25.999Z,2.53
2022-09-28T16:30:24.388Z,1.70
2022-09-28T16:32:53.511Z,1.60
2022-09-28T16:35:21.518Z,1.57
2022-09-28T16:37:43.044Z,2.40
2022-09-28T16:40:04.980Z,2.10
2022-09-28T16:42:27.862Z,2.23
2022-09-28T16:44:49.309Z,2.27
2022-09-28T16:47:10.736Z,1.97
2022-09-28T16:49:32.962Z,2.03
2022-09-28T16:51:54.477Z,2.30
2022-09-28T16:54:37.856Z,2.37
2022-09-28T16:57:00.343Z,2.27
2022-09-28T16:59:22.344Z,2.30
2022-09-28T17:01:43.975Z,2.43
2022-09-28T17:04:06.648Z,2.60
2022-09-28T17:06:28.150Z,2.33
2022-09-28T17:08:49.615Z,2.70
2022-09-28T17:11:20.484Z,2.43
2022-09-28T17:13:45.818Z,2.53
2022-09-28T17:16:12.856Z,2.40
2022-09-28T17:18:37.527Z,2.57
2022-09-28T17:21:03.302Z,2.37
2022-09-28T17:23:24.776Z,2.80
2022-09-28T17:25:46.217Z,2.30
2022-09-28T17:28:17.791Z,2.53
2022-09-28T17:30:39.273Z,2.40
2022-09-28T17:33:01.620Z,2.90
2022-09-28T17:35:24.668Z,3.13
2022-09-28T17:37:46.993Z,2.43
2022-09-28T17:40:19.341Z,2.80
2022-09-28T17:42:41.074Z,2.60
2022-09-28T17:45:02.514Z,2.77
2022-09-28T17:47:23.965Z,2.80
2022-09-28T17:49:46.111Z,3.60
2022-09-28T17:52:08.443Z,5.80
2022-09-28T17:54:29.949Z,4.80
2022-09-28T17:56:51.401Z,3.83
2022-09-28T17:59:16.093Z,3.93
2022-09-28T18:01:39.699Z,5.30
2022-09-28T18:04:03.921Z,4.30
2022-09-28T18:06:25.413Z,6.23
2022-09-28T18:08:47.009Z,5.03
2022-09-28T18:11:08.819Z,5.10
2022-09-28T18:13:30.322Z,4.40
2022-09-28T18:15:52.671Z,4.00
2022-09-28T18:18:14.232Z,4.10
2022-09-28T18:20:37.134Z,4.37
2022-09-28T18:22:58.677Z,4.23
2022-09-28T18:25:20.155Z,4.00
2022-09-28T18:27:41.728Z,3.83
2022-09-28T18:30:04.518Z,4.03
2022-09-28T18:32:26.055Z,3.50
2022-09-28T18:34:47.513Z,3.37
2022-09-28T18:37:10.076Z,3.80
2022-09-28T18:39:31.794Z,4.13
2022-09-28T18:41:53.289Z,3.87
2022-09-28T18:44:14.790Z,4.63
2022-09-28T18:46:36.720Z,3.93
2022-09-28T18:48:58.282Z,3.80
2022-09-28T18:51:20.607Z,3.77
2022-09-28T18:53:42.364Z,4.10
2022-09-28T18:56:12.346Z,3.97
2022-09-28T18:58:38.136Z,3.90
2022-09-28T19:01:18.723Z,3.90
2022-09-28T19:03:41.188Z,6.43
2022-09-28T19:06:02.789Z,12.17
2022-09-28T19:08:27.514Z,13.03
2022-09-28T19:10:49.270Z,9.17
2022-09-28T19:13:10.740Z,7.27
2022-09-28T19:15:32.624Z,6.70
2022-09-28T19:17:54.152Z,5.30
2022-09-28T19:20:16.047Z,5.30
2022-09-28T19:22:37.524Z,5.50
2022-09-28T19:24:58.992Z,5.63
2022-09-28T19:27:20.482Z,5.80
2022-09-28T19:29:42.058Z,6.60
2022-09-28T19:32:03.551Z,5.30
2022-09-28T19:34:27.073Z,4.80
2022-09-28T19:36:48.574Z,4.83
2022-09-28T19:39:14.122Z,4.90
2022-09-28T19:41:43.475Z,5.20
2022-09-28T19:44:08.433Z,5.20
2022-09-28T19:46:31.654Z,5.20
2022-09-28T19:48:53.143Z,5.17
2022-09-28T19:51:14.622Z,5.20
2022-09-28T19:53:41.069Z,4.57
2022-09-28T19:56:05.627Z,5.17
2022-09-28T19:58:33.218Z,5.90
2022-09-28T20:00:54.761Z,18.67
2022-09-28T20:03:16.990Z,6.43
2022-09-28T20:05:41.347Z,5.30
2022-09-28T20:10:29.508Z,5.20
2022-09-28T20:12:51.609Z,5.40
2022-09-28T20:15:13.067Z,5.30
2022-09-28T20:17:36.657Z,5.13
2022-09-28T20:19:58.600Z,4.70
2022-09-28T20:22:20.359Z,4.20
2022-09-28T20:24:41.796Z,3.87
2022-09-28T20:27:03.437Z,3.17
2022-09-28T20:29:25.221Z,3.53
2022-09-28T20:31:46.773Z,3.80
2022-09-28T20:34:09.396Z,3.77
2022-09-28T20:36:33.998Z,4.33
2022-09-28T20:38:57.055Z,4.77
2022-09-28T20:41:20.196Z,4.70
2022-09-28T20:43:41.691Z,4.17
2022-09-28T20:46:05.022Z,3.50
2022-09-28T20:48:27.309Z,3.40
2022-09-28T20:50:48.825Z,4.37
2022-09-28T20:53:10.267Z,4.57
2022-09-28T20:55:31.734Z,3.70
2022-09-28T20:57:53.180Z,3.50
2022-09-28T21:00:15.339Z,3.57
2022-09-28T21:02:36.818Z,3.43
2022-09-28T21:04:58.570Z,3.27
2022-09-28T21:07:20.122Z,3.70
2022-09-28T21:09:41.632Z,3.47
2022-09-28T21:12:04.344Z,3.60
2022-09-28T21:14:26.777Z,3.80
2022-09-28T21:16:48.262Z,4.50
2022-09-28T21:19:09.724Z,4.00
2022-09-28T21:21:31.424Z,4.17
2022-09-28T21:23:57.060Z,4.77
2022-09-28T21:26:25.073Z,4.77
2022-09-28T21:28:46.640Z,4.70
2022-09-28T21:31:11.276Z,5.73
2022-09-28T21:33:33.335Z,5.70
2022-09-28T21:35:54.793Z,6.10
2022-09-28T21:38:16.549Z,5.40
2022-09-28T21:40:38.025Z,5.30
2022-09-28T21:42:59.745Z,5.20
2022-09-28T21:45:21.239Z,7.37
2022-09-28T21:47:47.404Z,4.80
2022-09-28T21:50:09.243Z,5.67
2022-09-28T21:52:30.676Z,5.90
2022-09-28T21:54:52.165Z,6.13
2022-09-28T21:57:13.609Z,7.17
2022-09-28T21:59:35.136Z,7.50
2022-09-28T22:01:56.622Z,8.40
2022-09-28T22:04:18.136Z,14.33
2022-09-28T22:06:39.818Z,12.47
2022-09-28T22:09:01.304Z,13.30
2022-09-28T22:11:25.594Z,13.63
2022-09-28T22:13:49.444Z,12.63
2022-09-28T22:16:12.736Z,9.63
2022-09-28T22:18:34.590Z,23.20
2022-09-28T22:21:08.984Z,20.60
2022-09-28T22:23:30.576Z,11.00
2022-09-28T22:25:58.557Z,6.27
2022-09-28T22:28:19.992Z,5.83
2022-09-28T22:30:41.445Z,7.63
2022-09-28T22:33:03.241Z,8.03
2022-09-28T22:35:24.670Z,7.57
2022-09-28T22:37:46.126Z,12.67
2022-09-28T22:40:08.184Z,12.97
2022-09-28T22:42:29.710Z,11.17
2022-09-28T22:44:51.115Z,11.90
2022-09-28T22:47:12.804Z,10.13
2022-09-28T22:49:34.272Z,10.63
2022-09-28T22:51:55.717Z,9.37
2022-09-28T22:54:17.208Z,9.33
2022-09-28T22:56:38.662Z,9.07
2022-09-28T22:59:00.101Z,13.57
2022-09-28T23:01:26.851Z,16.40
2022-09-28T23:03:49.797Z,14.70
2022-09-28T23:06:13.380Z,43.50
2022-09-28T23:08:35.642Z,43.57
2022-09-28T23:10:57.110Z,49.73
2022-09-28T23:13:19.307Z,46.87
2022-09-28T23:15:41.120Z,40.27
2022-09-28T23:18:02.593Z,23.17
2022-09-28T23:20:24.108Z,19.87
2022-09-28T23:22:47.708Z,16.57
2022-09-28T23:25:09.426Z,13.73
2022-09-28T23:27:30.874Z,14.50
2022-09-28T23:29:54.267Z,19.03
2022-09-28T23:32:16.870Z,15.77
2022-09-28T23:34:38.374Z,16.43
2022-09-28T23:36:59.850Z,41.70
2022-09-28T23:39:21.309Z,25.27
2022-09-28T23:41:42.771Z,19.97
2022-09-28T23:44:04.625Z,25.07
2022-09-28T23:46:26.280Z,25.27
2022-09-28T23:48:48.236Z,22.60
2022-09-28T23:51:09.677Z,19.07
2022-09-28T23:53:32.347Z,16.07
2022-09-28T23:55:54.399Z,10.37
2022-09-28T23:58:15.882Z,11.83
